sensor_id;sensor_type;location;lat;lon;timestamp;P1;durP1;ratioP1;P2;durP2;ratioP2
68763;SDS011;55754;52.038;5.566;2022-09-28T00:00:57;8.77;;;3.67;;
68763;SDS011;55754;52.038;5.566;2022-09-28T00:03:22;7.60;;;3.30;;
68763;SDS011;55754;52.038;5.566;2022-09-28T00:05:48;8.98;;;3.50;;
68763;SDS011;55754;52.038;5.566;2022-09-28T00:08:13;8.67;;;3.17;;
68763;SDS011;55754;52.038;5.566;2022-09-28T00:10:39;9.13;;;3.47;;
68763;SDS011;55754;52.038;5.566;2022-09-28T00:13:07;7.40;;;3.28;;
68763;SDS011;55754;52.038;5.566;2022-09-28T00:15:33;8.95;;;3.13;;
68763;SDS011;55754;52.038;5.566;2022-09-28T00:17:59;9.15;;;3.40;;
68763;SDS011;55754;52.038;5.566;2022-09-28T00:20:25;9.33;;;3.00;;
68763;SDS011;55754;52.038;5.566;2022-09-28T00:22:50;8.33;;;3.20;;
68763;SDS011;55754;52.038;5.566;2022-09-28T00:25:16;7.50;;;3.00;;
68763;SDS011;55754;52.038;5.566;2022-09-28T00:27:41;9.00;;;3.10;;
68763;SDS011;55754;52.038;5.566;2022-09-28T00:30:07;8.27;;;3.05;;
68763;SDS011;55754;52.038;5.566;2022-09-28T00:32:33;7.83;;;2.80;;
68763;SDS011;55754;52.038;5.566;2022-09-28T00:34:59;6.50;;;3.05;;
68763;SDS011;55754;52.038;5.566;2022-09-28T00:37:24;6.77;;;2.90;;
68763;SDS011;55754;52.038;5.566;2022-09-28T00:39:50;7.35;;;3.05;;
68763;SDS011;55754;52.038;5.566;2022-09-28T00:42:17;7.40;;;3.10;;
68763;SDS011;55754;52.038;5.566;2022-09-28T00:44:48;6.72;;;3.10;;
68763;SDS011;55754;52.038;5.566;2022-09-28T00:55:13;8.07;;;2.90;;
68763;SDS011;55754;52.038;5.566;2022-09-28T00:57:42;8.23;;;3.17;;
68763;SDS011;55754;52.038;5.566;2022-09-28T01:00:11;7.35;;;2.90;;
68763;SDS011;55754;52.038;5.566;2022-09-28T01:02:37;7.32;;;3.10;;
68763;SDS011;55754;52.038;5.566;2022-09-28T01:05:04;6.57;;;2.80;;
68763;SDS011;55754;52.038;5.566;2022-09-28T01:07:31;6.70;;;2.75;;
68763;SDS011;55754;52.038;5.566;2022-09-28T01:09:57;9.27;;;2.70;;
68763;SDS011;55754;52.038;5.566;2022-09-28T01:12:23;6.03;;;2.50;;
68763;SDS011;55754;52.038;5.566;2022-09-28T01:14:48;7.70;;;2.80;;
68763;SDS011;55754;52.038;5.566;2022-09-28T01:17:16;7.55;;;3.22;;
68763;SDS011;55754;52.038;5.566;2022-09-28T01:28:11;6.97;;;2.60;;
68763;SDS011;55754;52.038;5.566;2022-09-28T01:30:41;6.78;;;2.90;;
68763;SDS011;55754;52.038;5.566;2022-09-28T01:33:12;6.20;;;2.77;;
68763;SDS011;55754;52.038;5.566;2022-09-28T01:35:50;5.72;;;2.50;;
68763;SDS011;55754;52.038;5.566;2022-09-28T01:38:27;6.97;;;2.78;;
68763;SDS011;55754;52.038;5.566;2022-09-28T01:40:55;6.60;;;2.88;;
68763;SDS011;55754;52.038;5.566;2022-09-28T01:43:24;6.70;;;3.10;;
68763;SDS011;55754;52.038;5.566;2022-09-28T01:45:53;7.03;;;3.17;;
68763;SDS011;55754;52.038;5.566;2022-09-28T01:48:27;7.53;;;3.22;;
68763;SDS011;55754;52.038;5.566;2022-09-28T01:51:02;7.20;;;3.47;;
68763;SDS011;55754;52.038;5.566;2022-09-28T01:53:36;6.45;;;3.22;;
68763;SDS011;55754;52.038;5.566;2022-09-28T01:56:12;7.75;;;3.53;;
68763;SDS011;55754;52.038;5.566;2022-09-28T01:58:52;7.17;;;3.50;;
68763;SDS011;55754;52.038;5.566;2022-09-28T02:01:22;7.05;;;3.60;;
68763;SDS011;55754;52.038;5.566;2022-09-28T02:03:58;9.35;;;4.13;;
68763;SDS011;55754;52.038;5.566;2022-09-28T02:06:30;9.98;;;4.22;;
68763;SDS011;55754;52.038;5.566;2022-09-28T02:09:10;9.35;;;4.03;;
68763;SDS011;55754;52.038;5.566;2022-09-28T02:11:42;8.73;;;4.20;;
68763;SDS011;55754;52.038;5.566;2022-09-28T02:14:14;9.98;;;4.40;;
68763;SDS011;55754;52.038;5.566;2022-09-28T02:16:44;7.90;;;4.35;;
68763;SDS011;55754;52.038;5.566;2022-09-28T02:19:20;7.88;;;4.30;;
68763;SDS011;55754;52.038;5.566;2022-09-28T02:24:41;9.83;;;4.67;;
68763;SDS011;55754;52.038;5.566;2022-09-28T02:30:13;7.97;;;4.30;;
68763;SDS011;55754;52.038;5.566;2022-09-28T02:32:40;10.70;;;4.78;;
68763;SDS011;55754;52.038;5.566;2022-09-28T02:35:14;8.53;;;4.57;;
68763;SDS011;55754;52.038;5.566;2022-09-28T02:37:42;9.35;;;4.50;;
68763;SDS011;55754;52.038;5.566;2022-09-28T02:40:21;7.78;;;4.60;;
68763;SDS011;55754;52.038;5.566;2022-09-28T02:48:58;9.03;;;4.10;;
68763;SDS011;55754;52.038;5.566;2022-09-28T03:00:21;9.63;;;4.00;;
68763;SDS011;55754;52.038;5.566;2022-09-28T03:03:00;7.60;;;3.67;;
68763;SDS011;55754;52.038;5.566;2022-09-28T03:08:20;7.00;;;3.63;;
68763;SDS011;55754;52.038;5.566;2022-09-28T03:10:58;7.28;;;3.50;;
68763;SDS011;55754;52.038;5.566;2022-09-28T03:13:25;8.05;;;3.63;;
68763;SDS011;55754;52.038;5.566;2022-09-28T03:16:11;7.17;;;3.37;;
68763;SDS011;55754;52.038;5.566;2022-09-28T03:18:42;7.13;;;3.10;;
68763;SDS011;55754;52.038;5.566;2022-09-28T03:21:08;7.03;;;3.38;;
68763;SDS011;55754;52.038;5.566;2022-09-28T03:23:35;6.93;;;3.20;;
68763;SDS011;55754;52.038;5.566;2022-09-28T03:26:01;6.47;;;3.40;;
68763;SDS011;55754;52.038;5.566;2022-09-28T03:28:27;7.30;;;3.20;;
68763;SDS011;55754;52.038;5.566;2022-09-28T03:30:53;6.47;;;3.35;;
68763;SDS011;55754;52.038;5.566;2022-09-28T03:33:19;8.37;;;3.10;;
68763;SDS011;55754;52.038;5.566;2022-09-28T03:35:46;7.22;;;3.10;;
68763;SDS011;55754;52.038;5.566;2022-09-28T03:38:13;6.15;;;2.97;;
68763;SDS011;55754;52.038;5.566;2022-09-28T03:40:38;6.53;;;3.20;;
68763;SDS011;55754;52.038;5.566;2022-09-28T03:43:04;7.45;;;2.90;;
68763;SDS011;55754;52.038;5.566;2022-09-28T03:45:29;9.57;;;3.20;;
68763;SDS011;55754;52.038;5.566;2022-09-28T03:47:55;6.67;;;3.30;;
68763;SDS011;55754;52.038;5.566;2022-09-28T03:50:20;8.18;;;3.15;;
68763;SDS011;55754;52.038;5.566;2022-09-28T03:52:46;7.10;;;3.10;;
68763;SDS011;55754;52.038;5.566;2022-09-28T03:55:12;6.40;;;3.23;;
68763;SDS011;55754;52.038;5.566;2022-09-28T03:57:37;6.47;;;3.05;;
68763;SDS011;55754;52.038;5.566;2022-09-28T04:00:03;7.10;;;3.20;;
68763;SDS011;55754;52.038;5.566;2022-09-28T04:02:30;7.25;;;3.50;;
68763;SDS011;55754;52.038;5.566;2022-09-28T04:04:55;6.30;;;3.50;;
68763;SDS011;55754;52.038;5.566;2022-09-28T04:07:21;7.15;;;3.47;;
68763;SDS011;55754;52.038;5.566;2022-09-28T04:09:46;9.37;;;3.50;;
68763;SDS011;55754;52.038;5.566;2022-09-28T04:12:12;6.70;;;3.28;;
68763;SDS011;55754;52.038;5.566;2022-09-28T04:14:38;7.07;;;3.33;;
68763;SDS011;55754;52.038;5.566;2022-09-28T04:17:03;6.75;;;3.50;;
68763;SDS011;55754;52.038;5.566;2022-09-28T04:19:31;7.50;;;3.30;;
68763;SDS011;55754;52.038;5.566;2022-09-28T04:21:56;8.60;;;3.40;;
68763;SDS011;55754;52.038;5.566;2022-09-28T04:24:22;8.67;;;3.30;;
68763;SDS011;55754;52.038;5.566;2022-09-28T04:26:47;7.72;;;3.40;;
68763;SDS011;55754;52.038;5.566;2022-09-28T04:29:13;5.93;;;3.10;;
68763;SDS011;55754;52.038;5.566;2022-09-28T04:31:45;6.28;;;3.10;;
68763;SDS011;55754;52.038;5.566;2022-09-28T04:34:16;5.80;;;3.05;;
68763;SDS011;55754;52.038;5.566;2022-09-28T04:36:43;8.00;;;3.20;;
68763;SDS011;55754;52.038;5.566;2022-09-28T04:39:13;6.45;;;3.00;;
68763;SDS011;55754;52.038;5.566;2022-09-28T04:41:40;9.10;;;3.20;;
68763;SDS011;55754;52.038;5.566;2022-09-28T04:44:06;10.32;;;2.88;;
68763;SDS011;55754;52.038;5.566;2022-09-28T04:46:33;9.35;;;2.90;;
68763;SDS011;55754;52.038;5.566;2022-09-28T04:48:59;6.33;;;3.10;;
68763;SDS011;55754;52.038;5.566;2022-09-28T04:51:24;5.80;;;2.95;;
68763;SDS011;55754;52.038;5.566;2022-09-28T04:53:54;6.30;;;2.95;;
68763;SDS011;55754;52.038;5.566;2022-09-28T04:56:19;6.00;;;3.10;;
68763;SDS011;55754;52.038;5.566;2022-09-28T04:58:45;6.70;;;2.90;;
68763;SDS011;55754;52.038;5.566;2022-09-28T05:01:11;9.07;;;2.88;;
68763;SDS011;55754;52.038;5.566;2022-09-28T05:03:39;6.00;;;3.00;;
68763;SDS011;55754;52.038;5.566;2022-09-28T05:06:05;6.15;;;2.97;;
68763;SDS011;55754;52.038;5.566;2022-09-28T05:08:32;9.18;;;3.17;;
68763;SDS011;55754;52.038;5.566;2022-09-28T05:11:00;5.68;;;2.72;;
68763;SDS011;55754;52.038;5.566;2022-09-28T05:13:28;7.60;;;3.08;;
68763;SDS011;55754;52.038;5.566;2022-09-28T05:15:55;6.17;;;2.90;;
68763;SDS011;55754;52.038;5.566;2022-09-28T05:18:22;7.03;;;2.83;;
68763;SDS011;55754;52.038;5.566;2022-09-28T05:20:48;5.78;;;2.70;;
68763;SDS011;55754;52.038;5.566;2022-09-28T05:23:14;8.55;;;2.47;;
68763;SDS011;55754;52.038;5.566;2022-09-28T05:25:40;6.60;;;2.50;;
68763;SDS011;55754;52.038;5.566;2022-09-28T05:28:06;11.18;;;2.70;;
68763;SDS011;55754;52.038;5.566;2022-09-28T05:30:33;5.38;;;2.47;;
68763;SDS011;55754;52.038;5.566;2022-09-28T05:32:59;7.37;;;2.40;;
68763;SDS011;55754;52.038;5.566;2022-09-28T05:35:26;10.63;;;2.28;;
68763;SDS011;55754;52.038;5.566;2022-09-28T05:37:51;6.18;;;2.72;;
68763;SDS011;55754;52.038;5.566;2022-09-28T05:40:18;7.93;;;2.50;;
68763;SDS011;55754;52.038;5.566;2022-09-28T05:42:44;5.45;;;2.50;;
68763;SDS011;55754;52.038;5.566;2022-09-28T05:45:09;7.17;;;2.63;;
68763;SDS011;55754;52.038;5.566;2022-09-28T05:47:39;6.43;;;2.60;;
68763;SDS011;55754;52.038;5.566;2022-09-28T05:50:05;5.33;;;2.33;;
68763;SDS011;55754;52.038;5.566;2022-09-28T05:52:32;7.95;;;2.40;;
68763;SDS011;55754;52.038;5.566;2022-09-28T05:54:58;8.83;;;2.50;;
68763;SDS011;55754;52.038;5.566;2022-09-28T05:57:23;6.47;;;2.40;;
68763;SDS011;55754;52.038;5.566;2022-09-28T05:59:49;5.90;;;2.67;;
68763;SDS011;55754;52.038;5.566;2022-09-28T06:02:14;6.03;;;2.17;;
68763;SDS011;55754;52.038;5.566;2022-09-28T06:04:40;5.55;;;2.20;;
68763;SDS011;55754;52.038;5.566;2022-09-28T06:07:05;4.57;;;1.87;;
68763;SDS011;55754;52.038;5.566;2022-09-28T06:09:31;5.47;;;2.17;;
68763;SDS011;55754;52.038;5.566;2022-09-28T06:11:57;7.07;;;2.22;;
68763;SDS011;55754;52.038;5.566;2022-09-28T06:14:23;5.13;;;2.00;;
68763;SDS011;55754;52.038;5.566;2022-09-28T06:16:49;4.43;;;1.50;;
68763;SDS011;55754;52.038;5.566;2022-09-28T06:19:15;5.00;;;1.70;;
68763;SDS011;55754;52.038;5.566;2022-09-28T06:21:41;4.60;;;1.50;;
68763;SDS011;55754;52.038;5.566;2022-09-28T06:24:07;4.70;;;1.42;;
68763;SDS011;55754;52.038;5.566;2022-09-28T06:26:35;3.80;;;1.30;;
68763;SDS011;55754;52.038;5.566;2022-09-28T06:29:01;3.17;;;1.20;;
68763;SDS011;55754;52.038;5.566;2022-09-28T06:31:29;3.55;;;1.40;;
68763;SDS011;55754;52.038;5.566;2022-09-28T06:33:55;5.43;;;1.43;;
68763;SDS011;55754;52.038;5.566;2022-09-28T06:36:21;3.60;;;1.10;;
68763;SDS011;55754;52.038;5.566;2022-09-28T06:38:47;4.72;;;1.30;;
68763;SDS011;55754;52.038;5.566;2022-09-28T06:41:13;5.30;;;1.30;;
68763;SDS011;55754;52.038;5.566;2022-09-28T06:43:39;2.75;;;1.10;;
68763;SDS011;55754;52.038;5.566;2022-09-28T06:46:05;3.95;;;1.10;;
68763;SDS011;55754;52.038;5.566;2022-09-28T06:48:33;3.30;;;1.10;;
68763;SDS011;55754;52.038;5.566;2022-09-28T06:50:59;3.78;;;1.17;;
68763;SDS011;55754;52.038;5.566;2022-09-28T06:53:28;2.90;;;1.00;;
68763;SDS011;55754;52.038;5.566;2022-09-28T06:55:54;3.33;;;1.30;;
68763;SDS011;55754;52.038;5.566;2022-09-28T06:58:20;5.50;;;1.20;;
68763;SDS011;55754;52.038;5.566;2022-09-28T07:00:47;4.63;;;1.00;;
68763;SDS011;55754;52.038;5.566;2022-09-28T07:03:18;3.63;;;1.00;;
68763;SDS011;55754;52.038;5.566;2022-09-28T07:05:47;3.72;;;1.13;;
68763;SDS011;55754;52.038;5.566;2022-09-28T07:08:15;3.47;;;0.90;;
68763;SDS011;55754;52.038;5.566;2022-09-28T07:10:42;4.70;;;0.90;;
68763;SDS011;55754;52.038;5.566;2022-09-28T07:13:09;2.15;;;0.80;;
68763;SDS011;55754;52.038;5.566;2022-09-28T07:15:36;2.50;;;0.80;;
68763;SDS011;55754;52.038;5.566;2022-09-28T07:18:02;3.05;;;0.80;;
68763;SDS011;55754;52.038;5.566;2022-09-28T07:20:29;2.33;;;0.70;;
68763;SDS011;55754;52.038;5.566;2022-09-28T07:22:57;3.80;;;0.80;;
68763;SDS011;55754;52.038;5.566;2022-09-28T07:25:23;3.15;;;1.00;;
68763;SDS011;55754;52.038;5.566;2022-09-28T07:27:50;3.53;;;0.80;;
68763;SDS011;55754;52.038;5.566;2022-09-28T07:30:26;2.42;;;0.80;;
68763;SDS011;55754;52.038;5.566;2022-09-28T07:32:53;3.20;;;0.80;;
68763;SDS011;55754;52.038;5.566;2022-09-28T07:35:19;2.03;;;0.73;;
68763;SDS011;55754;52.038;5.566;2022-09-28T07:37:46;5.32;;;0.80;;
68763;SDS011;55754;52.038;5.566;2022-09-28T07:40:11;2.80;;;0.77;;
68763;SDS011;55754;52.038;5.566;2022-09-28T07:43:02;4.93;;;1.13;;
68763;SDS011;55754;52.038;5.566;2022-09-28T07:45:29;3.85;;;1.15;;
68763;SDS011;55754;52.038;5.566;2022-09-28T07:47:57;3.53;;;1.00;;
68763;SDS011;55754;52.038;5.566;2022-09-28T07:50:23;4.90;;;1.27;;
68763;SDS011;55754;52.038;5.566;2022-09-28T07:52:49;4.20;;;1.02;;
68763;SDS011;55754;52.038;5.566;2022-09-28T07:55:14;3.40;;;1.30;;
68763;SDS011;55754;52.038;5.566;2022-09-28T07:57:40;5.10;;;1.00;;
68763;SDS011;55754;52.038;5.566;2022-09-28T08:00:06;5.75;;;1.20;;
68763;SDS011;55754;52.038;5.566;2022-09-28T08:02:33;4.63;;;1.30;;
68763;SDS011;55754;52.038;5.566;2022-09-28T08:04:59;7.50;;;1.17;;
68763;SDS011;55754;52.038;5.566;2022-09-28T08:07:28;3.63;;;1.23;;
68763;SDS011;55754;52.038;5.566;2022-09-28T08:09:53;6.10;;;1.38;;
68763;SDS011;55754;52.038;5.566;2022-09-28T08:12:19;5.20;;;1.30;;
68763;SDS011;55754;52.038;5.566;2022-09-28T08:14:46;6.07;;;1.50;;
68763;SDS011;55754;52.038;5.566;2022-09-28T08:17:12;5.75;;;1.60;;
68763;SDS011;55754;52.038;5.566;2022-09-28T08:19:37;3.70;;;1.23;;
68763;SDS011;55754;52.038;5.566;2022-09-28T08:22:22;3.75;;;1.50;;
68763;SDS011;55754;52.038;5.566;2022-09-28T08:24:47;5.57;;;1.60;;
68763;SDS011;55754;52.038;5.566;2022-09-28T08:27:16;4.70;;;1.60;;
68763;SDS011;55754;52.038;5.566;2022-09-28T08:29:42;4.72;;;1.42;;
68763;SDS011;55754;52.038;5.566;2022-09-28T08:32:08;6.30;;;1.40;;
68763;SDS011;55754;52.038;5.566;2022-09-28T08:34:35;5.47;;;1.60;;
68763;SDS011;55754;52.038;5.566;2022-09-28T08:37:05;3.13;;;1.27;;
68763;SDS011;55754;52.038;5.566;2022-09-28T08:39:33;5.95;;;1.80;;
68763;SDS011;55754;52.038;5.566;2022-09-28T08:44:47;4.15;;;1.30;;
68763;SDS011;55754;52.038;5.566;2022-09-28T08:47:26;4.40;;;1.30;;
68763;SDS011;55754;52.038;5.566;2022-09-28T08:50:21;4.40;;;1.30;;
68763;SDS011;55754;52.038;5.566;2022-09-28T08:52:52;6.22;;;1.30;;
68763;SDS011;55754;52.038;5.566;2022-09-28T08:55:29;5.87;;;1.53;;
68763;SDS011;55754;52.038;5.566;2022-09-28T08:58:15;4.18;;;1.33;;
68763;SDS011;55754;52.038;5.566;2022-09-28T09:00:47;3.22;;;1.13;;
68763;SDS011;55754;52.038;5.566;2022-09-28T09:03:18;5.18;;;1.38;;
68763;SDS011;55754;52.038;5.566;2022-09-28T09:09:09;3.03;;;1.03;;
68763;SDS011;55754;52.038;5.566;2022-09-28T09:17:30;3.45;;;0.80;;
68763;SDS011;55754;52.038;5.566;2022-09-28T09:23:17;4.27;;;1.10;;
68763;SDS011;55754;52.038;5.566;2022-09-28T09:26:12;3.17;;;0.80;;
68763;SDS011;55754;52.038;5.566;2022-09-28T09:29:01;4.00;;;1.30;;
68763;SDS011;55754;52.038;5.566;2022-09-28T09:31:42;2.97;;;0.88;;
68763;SDS011;55754;52.038;5.566;2022-09-28T09:48:22;2.97;;;0.80;;
68763;SDS011;55754;52.038;5.566;2022-09-28T09:51:01;4.10;;;0.80;;
68763;SDS011;55754;52.038;5.566;2022-09-28T09:53:50;2.45;;;0.60;;
68763;SDS011;55754;52.038;5.566;2022-09-28T09:56:30;2.63;;;0.70;;
68763;SDS011;55754;52.038;5.566;2022-09-28T09:59:34;2.80;;;0.70;;
68763;SDS011;55754;52.038;5.566;2022-09-28T10:05:01;1.50;;;0.60;;
68763;SDS011;55754;52.038;5.566;2022-09-28T10:10:33;1.70;;;0.60;;
68763;SDS011;55754;52.038;5.566;2022-09-28T10:13:01;18.40;;;1.00;;
68763;SDS011;55754;52.038;5.566;2022-09-28T10:15:28;3.90;;;0.70;;
68763;SDS011;55754;52.038;5.566;2022-09-28T10:18:00;9.07;;;0.80;;
68763;SDS011;55754;52.038;5.566;2022-09-28T10:20:31;8.93;;;0.70;;
68763;SDS011;55754;52.038;5.566;2022-09-28T10:22:59;5.45;;;0.98;;
68763;SDS011;55754;52.038;5.566;2022-09-28T10:25:27;6.68;;;0.70;;
68763;SDS011;55754;52.038;5.566;2022-09-28T10:27:55;1199.00;;;60.22;;
68763;SDS011;55754;52.038;5.566;2022-09-28T10:30:23;36.23;;;3.53;;
68763;SDS011;55754;52.038;5.566;2022-09-28T10:32:50;5.30;;;0.70;;
68763;SDS011;55754;52.038;5.566;2022-09-28T10:35:23;2.05;;;0.50;;
68763;SDS011;55754;52.038;5.566;2022-09-28T10:37:54;3.70;;;0.50;;
68763;SDS011;55754;52.038;5.566;2022-09-28T10:40:24;1.10;;;0.40;;
68763;SDS011;55754;52.038;5.566;2022-09-28T10:45:41;2.35;;;0.40;;
68763;SDS011;55754;52.038;5.566;2022-09-28T10:48:20;1.85;;;0.80;;
68763;SDS011;55754;52.038;5.566;2022-09-28T10:50:56;988.67;;;61.83;;
68763;SDS011;55754;52.038;5.566;2022-09-28T10:53:29;661.60;;;48.97;;
68763;SDS011;55754;52.038;5.566;2022-09-28T10:55:56;45.83;;;4.77;;
68763;SDS011;55754;52.038;5.566;2022-09-28T10:58:27;32.17;;;4.22;;
68763;SDS011;55754;52.038;5.566;2022-09-28T11:01:01;5.10;;;0.70;;
68763;SDS011;55754;52.038;5.566;2022-09-28T11:03:30;2.67;;;0.50;;
68763;SDS011;55754;52.038;5.566;2022-09-28T11:05:57;1.10;;;0.40;;
68763;SDS011;55754;52.038;5.566;2022-09-28T11:08:27;507.10;;;126.85;;
68763;SDS011;55754;52.038;5.566;2022-09-28T11:11:07;1999.90;;;999.90;;
68763;SDS011;55754;52.038;5.566;2022-09-28T11:13:41;1999.90;;;846.72;;
68763;SDS011;55754;52.038;5.566;2022-09-28T11:16:20;1814.60;;;441.83;;
68763;SDS011;55754;52.038;5.566;2022-09-28T11:18:46;840.13;;;192.80;;
68763;SDS011;55754;52.038;5.566;2022-09-28T11:21:16;377.05;;;76.32;;
68763;SDS011;55754;52.038;5.566;2022-09-28T11:24:02;1281.75;;;243.40;;
68763;SDS011;55754;52.038;5.566;2022-09-28T11:26:37;1999.90;;;492.77;;
68763;SDS011;55754;52.038;5.566;2022-09-28T11:29:21;1999.90;;;596.70;;
68763;SDS011;55754;52.038;5.566;2022-09-28T11:31:50;216.27;;;36.67;;
68763;SDS011;55754;52.038;5.566;2022-09-28T11:34:21;65.80;;;10.98;;
68763;SDS011;55754;52.038;5.566;2022-09-28T11:39:47;8.30;;;1.53;;
68763;SDS011;55754;52.038;5.566;2022-09-28T11:42:22;3.83;;;0.60;;
68763;SDS011;55754;52.038;5.566;2022-09-28T11:45:02;1.80;;;0.50;;
68763;SDS011;55754;52.038;5.566;2022-09-28T11:47:36;1.85;;;0.50;;
68763;SDS011;55754;52.038;5.566;2022-09-28T11:50:34;1.60;;;0.50;;
68763;SDS011;55754;52.038;5.566;2022-09-28T11:53:17;1.10;;;0.40;;
68763;SDS011;55754;52.038;5.566;2022-09-28T11:55:55;2.10;;;0.40;;
68763;SDS011;55754;52.038;5.566;2022-09-28T11:58:49;2.38;;;0.40;;
68763;SDS011;55754;52.038;5.566;2022-09-28T12:01:20;1.80;;;0.40;;
68763;SDS011;55754;52.038;5.566;2022-09-28T12:04:03;1.55;;;0.60;;
68763;SDS011;55754;52.038;5.566;2022-09-28T12:06:39;1.63;;;0.50;;
68763;SDS011;55754;52.038;5.566;2022-09-28T12:09:35;1999.90;;;668.75;;
68763;SDS011;55754;52.038;5.566;2022-09-28T12:12:16;1999.90;;;761.55;;
68763;SDS011;55754;52.038;5.566;2022-09-28T12:14:51;416.25;;;86.65;;
68763;SDS011;55754;52.038;5.566;2022-09-28T12:17:33;88.10;;;26.77;;
68763;SDS011;55754;52.038;5.566;2022-09-28T12:25:41;9.07;;;2.55;;
68763;SDS011;55754;52.038;5.566;2022-09-28T12:28:30;5.20;;;1.10;;
68763;SDS011;55754;52.038;5.566;2022-09-28T12:31:13;3.13;;;0.70;;
68763;SDS011;55754;52.038;5.566;2022-09-28T12:34:01;3.03;;;0.70;;
68763;SDS011;55754;52.038;5.566;2022-09-28T12:52:54;1.40;;;0.40;;
68763;SDS011;55754;52.038;5.566;2022-09-28T13:04:23;0.97;;;0.40;;
68763;SDS011;55754;52.038;5.566;2022-09-28T13:10:01;1.38;;;0.40;;
68763;SDS011;55754;52.038;5.566;2022-09-28T13:15:28;1.70;;;0.40;;
68763;SDS011;55754;52.038;5.566;2022-09-28T13:20:55;1.20;;;0.40;;
68763;SDS011;55754;52.038;5.566;2022-09-28T13:23:32;8.02;;;0.98;;
68763;SDS011;55754;52.038;5.566;2022-09-28T13:28:47;1.08;;;0.40;;
68763;SDS011;55754;52.038;5.566;2022-09-28T13:31:19;2.10;;;0.50;;
68763;SDS011;55754;52.038;5.566;2022-09-28T13:33:48;2.45;;;0.50;;
68763;SDS011;55754;52.038;5.566;2022-09-28T13:36:33;1.50;;;0.50;;
68763;SDS011;55754;52.038;5.566;2022-09-28T13:39:00;3.63;;;0.50;;
68763;SDS011;55754;52.038;5.566;2022-09-28T13:41:27;180.97;;;9.63;;
68763;SDS011;55754;52.038;5.566;2022-09-28T13:44:09;15.18;;;1.27;;
68763;SDS011;55754;52.038;5.566;2022-09-28T13:47:03;2.25;;;0.50;;
68763;SDS011;55754;52.038;5.566;2022-09-28T13:52:51;1.67;;;0.50;;
68763;SDS011;55754;52.038;5.566;2022-09-28T13:58:20;2.35;;;0.60;;
68763;SDS011;55754;52.038;5.566;2022-09-28T14:00:58;3.88;;;0.60;;
68763;SDS011;55754;52.038;5.566;2022-09-28T14:03:41;1.65;;;0.50;;
68763;SDS011;55754;52.038;5.566;2022-09-28T14:06:09;2.23;;;0.60;;
68763;SDS011;55754;52.038;5.566;2022-09-28T14:16:26;1.63;;;0.60;;
68763;SDS011;55754;52.038;5.566;2022-09-28T14:36:00;1.77;;;0.50;;
68763;SDS011;55754;52.038;5.566;2022-09-28T14:38:35;2.73;;;0.70;;
68763;SDS011;55754;52.038;5.566;2022-09-28T14:41:30;2.30;;;0.50;;
68763;SDS011;55754;52.038;5.566;2022-09-28T14:44:03;2.42;;;0.70;;
68763;SDS011;55754;52.038;5.566;2022-09-28T14:46:41;2.20;;;0.60;;
68763;SDS011;55754;52.038;5.566;2022-09-28T14:54:23;4.20;;;1.30;;
68763;SDS011;55754;52.038;5.566;2022-09-28T15:01:49;4.47;;;1.70;;
68763;SDS011;55754;52.038;5.566;2022-09-28T15:04:26;4.50;;;1.55;;
68763;SDS011;55754;52.038;5.566;2022-09-28T15:06:54;4.22;;;1.30;;
68763;SDS011;55754;52.038;5.566;2022-09-28T15:09:29;3.53;;;0.83;;
68763;SDS011;55754;52.038;5.566;2022-09-28T15:12:00;2.53;;;0.90;;
68763;SDS011;55754;52.038;5.566;2022-09-28T15:14:27;3.00;;;0.90;;
68763;SDS011;55754;52.038;5.566;2022-09-28T15:16:57;2.90;;;0.82;;
68763;SDS011;55754;52.038;5.566;2022-09-28T15:19:41;4.97;;;0.80;;
68763;SDS011;55754;52.038;5.566;2022-09-28T15:22:15;2.05;;;0.60;;
68763;SDS011;55754;52.038;5.566;2022-09-28T15:24:44;1.90;;;0.60;;
68763;SDS011;55754;52.038;5.566;2022-09-28T15:27:21;2.13;;;0.52;;
68763;SDS011;55754;52.038;5.566;2022-09-28T15:29:57;1.60;;;0.60;;
68763;SDS011;55754;52.038;5.566;2022-09-28T15:32:24;2.93;;;0.50;;
68763;SDS011;55754;52.038;5.566;2022-09-28T15:34:55;2.03;;;0.55;;
68763;SDS011;55754;52.038;5.566;2022-09-28T15:37:33;1.50;;;0.50;;
68763;SDS011;55754;52.038;5.566;2022-09-28T15:40:00;5.25;;;2.30;;
68763;SDS011;55754;52.038;5.566;2022-09-28T15:42:35;53.20;;;24.60;;
68763;SDS011;55754;52.038;5.566;2022-09-28T15:45:02;29.63;;;18.97;;
68763;SDS011;55754;52.038;5.566;2022-09-28T15:47:46;10.35;;;6.15;;
68763;SDS011;55754;52.038;5.566;2022-09-28T15:52:57;8.65;;;5.35;;
68763;SDS011;55754;52.038;5.566;2022-09-28T15:55:27;23.70;;;12.68;;
68763;SDS011;55754;52.038;5.566;2022-09-28T15:58:06;21.17;;;12.85;;
68763;SDS011;55754;52.038;5.566;2022-09-28T16:00:40;8.85;;;5.28;;
68763;SDS011;55754;52.038;5.566;2022-09-28T16:08:16;4.95;;;2.22;;
68763;SDS011;55754;52.038;5.566;2022-09-28T16:13:45;3.35;;;1.10;;
68763;SDS011;55754;52.038;5.566;2022-09-28T16:16:34;3.43;;;1.00;;
68763;SDS011;55754;52.038;5.566;2022-09-28T16:19:02;2.17;;;0.70;;
68763;SDS011;55754;52.038;5.566;2022-09-28T16:24:03;2.80;;;0.90;;
68763;SDS011;55754;52.038;5.566;2022-09-28T16:26:30;3.40;;;0.83;;
68763;SDS011;55754;52.038;5.566;2022-09-28T16:29:05;3.47;;;1.00;;
68763;SDS011;55754;52.038;5.566;2022-09-28T16:31:33;4.40;;;1.58;;
68763;SDS011;55754;52.038;5.566;2022-09-28T16:34:07;2.97;;;1.20;;
68763;SDS011;55754;52.038;5.566;2022-09-28T16:36:43;3.78;;;1.17;;
68763;SDS011;55754;52.038;5.566;2022-09-28T16:39:11;3.50;;;1.23;;
68763;SDS011;55754;52.038;5.566;2022-09-28T16:41:38;3.30;;;1.25;;
68763;SDS011;55754;52.038;5.566;2022-09-28T16:44:12;12.00;;;4.47;;
68763;SDS011;55754;52.038;5.566;2022-09-28T16:46:42;10.93;;;5.20;;
68763;SDS011;55754;52.038;5.566;2022-09-28T16:49:10;6.63;;;2.30;;
68763;SDS011;55754;52.038;5.566;2022-09-28T16:51:42;4.40;;;1.60;;
68763;SDS011;55754;52.038;5.566;2022-09-28T16:54:14;4.82;;;1.98;;
68763;SDS011;55754;52.038;5.566;2022-09-28T16:56:59;3.63;;;1.60;;
68763;SDS011;55754;52.038;5.566;2022-09-28T16:59:26;4.87;;;2.00;;
68763;SDS011;55754;52.038;5.566;2022-09-28T17:01:52;6.18;;;2.08;;
68763;SDS011;55754;52.038;5.566;2022-09-28T17:04:20;6.35;;;2.65;;
68763;SDS011;55754;52.038;5.566;2022-09-28T17:06:49;6.35;;;2.75;;
68763;SDS011;55754;52.038;5.566;2022-09-28T17:09:17;5.20;;;1.77;;
68763;SDS011;55754;52.038;5.566;2022-09-28T17:11:43;4.10;;;1.50;;
68763;SDS011;55754;52.038;5.566;2022-09-28T17:14:09;5.03;;;1.75;;
68763;SDS011;55754;52.038;5.566;2022-09-28T17:16:35;4.68;;;1.60;;
68763;SDS011;55754;52.038;5.566;2022-09-28T17:19:07;8.75;;;3.50;;
68763;SDS011;55754;52.038;5.566;2022-09-28T17:21:43;6.00;;;2.50;;
68763;SDS011;55754;52.038;5.566;2022-09-28T17:24:08;6.20;;;2.47;;
68763;SDS011;55754;52.038;5.566;2022-09-28T17:26:34;6.83;;;2.50;;
68763;SDS011;55754;52.038;5.566;2022-09-28T17:29:00;5.80;;;2.50;;
68763;SDS011;55754;52.038;5.566;2022-09-28T17:31:26;6.33;;;2.33;;
68763;SDS011;55754;52.038;5.566;2022-09-28T17:33:52;5.40;;;2.10;;
68763;SDS011;55754;52.038;5.566;2022-09-28T17:36:18;5.30;;;2.17;;
68763;SDS011;55754;52.038;5.566;2022-09-28T17:38:47;7.40;;;2.20;;
68763;SDS011;55754;52.038;5.566;2022-09-28T17:41:16;5.22;;;2.30;;
68763;SDS011;55754;52.038;5.566;2022-09-28T17:43:43;5.78;;;2.20;;
68763;SDS011;55754;52.038;5.566;2022-09-28T17:48:49;6.63;;;2.50;;
68763;SDS011;55754;52.038;5.566;2022-09-28T17:51:15;8.85;;;3.15;;
68763;SDS011;55754;52.038;5.566;2022-09-28T17:53:43;7.63;;;3.30;;
68763;SDS011;55754;52.038;5.566;2022-09-28T17:56:09;8.40;;;3.00;;
68763;SDS011;55754;52.038;5.566;2022-09-28T17:58:34;8.73;;;2.93;;
68763;SDS011;55754;52.038;5.566;2022-09-28T18:01:00;6.55;;;2.88;;
68763;SDS011;55754;52.038;5.566;2022-09-28T18:03:26;7.03;;;2.80;;